• Join FlightAware (Why Join?)
  • Login
  • US Flag 
04:47AM EST


 

Airport Tracker/Info


-or-


 

Live Flight TrackerFlight Track Log ✈ VH-MMR ✈ 28-Oct-2013 ✈ YBCG / OOL - YSCN / CDU

Flight Track Log - Related Links

Times and Time Zones

All times are in EDT time to prevent confusion due to time zone crossing. See the VH-MMR flight status page for this flight to view local times or setup timezone preferences in your user account.

Time Position Orientation Groundspeed Altitude Reporting Facility
EDT Latitude Longitude Course Direction KTS MPH feet Rate Location/Type
05:22PM -28.1554 153.4673 208° Southwest 128 147 1,300  Level Aus ATC (RADAR)
05:22PM -28.1753 153.4553 208° Southwest 138 159 1,700 660 Climbing Aus ATC (RADAR)
05:23PM -28.1954 153.4432 208° Southwest 140 161 2,100 720 Climbing Aus ATC (RADAR)
05:23PM -28.2131 153.4327 207° Southwest 143 165 2,500 720 Climbing Aus ATC (RADAR)
05:24PM -28.2344 153.4194 209° Southwest 146 168 2,900 660 Climbing Aus ATC (RADAR)
05:25PM -28.2863 153.3878 208° Southwest 140 161 3,900 660 Climbing Aus ATC (RADAR)
05:26PM -28.3005 153.3790 209° Southwest 140 161 4,200 660 Climbing Aus ATC (RADAR)
05:26PM -28.3200 153.3673 208° Southwest 136 157 4,600 660 Climbing Aus ATC (RADAR)
05:27PM -28.3444 153.3524 208° Southwest 133 153 5,100 660 Climbing Aus ATC (RADAR)
05:28PM -28.3659 153.3396 208° Southwest 131 151 5,600 660 Climbing Aus ATC (RADAR)
05:29PM -28.3875 153.3267 208° Southwest 131 151 6,000 600 Climbing Aus ATC (RADAR)
05:29PM -28.4006 153.3197 205° Southwest 127 146 6,300 660 Climbing Aus ATC (RADAR)
05:30PM -28.4372 153.2996 206° Southwest 125 144 7,100 600 Climbing Aus ATC (RADAR)
05:31PM -28.4502 153.2924 206° Southwest 124 143 7,300 540 Climbing Aus ATC (RADAR)
05:31PM -28.4654 153.2836 207° Southwest 123 142 7,600 480 Climbing Aus ATC (RADAR)
05:32PM -28.4898 153.2695 207° Southwest 119 137 8,000 240 Climbing Aus ATC (RADAR)
05:32PM -28.5096 153.2572 209° Southwest 137 158 8,000  Level Aus ATC (RADAR)
05:33PM -28.5399 153.2379 209° Southwest 151 174 8,000  Level Aus ATC (RADAR)
05:34PM -28.5496 153.2325 206° Southwest 154 177 8,000  Level Aus ATC (RADAR)
05:34PM -28.5717 153.2191 208° Southwest 155 178 8,000  Level Aus ATC (RADAR)
05:35PM -28.6206 153.1938 204° Southwest 154 177 8,000  Level Aus ATC (RADAR)
05:36PM -28.6372 153.1859 203° Southwest 155 178 8,000  Level Aus ATC (RADAR)
05:36PM -28.6537 153.1781 203° Southwest 154 177 8,000  Level Aus ATC (RADAR)
05:37PM -28.6899 153.1601 204° Southwest 155 178 8,000  Level Aus ATC (RADAR)
05:38PM -28.7131 153.1496 202° Southwest 154 177 8,000  Level Aus ATC (RADAR)
05:38PM -28.7371 153.1409 198° South 154 177 8,000  Level Aus ATC (RADAR)
05:39PM -28.7577 153.1335 198° South 156 180 8,000  Level Aus ATC (RADAR)
05:40PM -28.8007 153.1121 203° Southwest 155 178 8,000  Level Aus ATC (RADAR)
05:40PM -28.8167 153.1028 207° Southwest 155 178 8,000  Level Aus ATC (RADAR)
05:41PM -28.8330 153.0938 206° Southwest 156 180 8,000  Level Aus ATC (RADAR)
05:41PM -28.8560 153.0823 204° Southwest 155 178 8,000  Level Aus ATC (RADAR)
05:42PM -28.8818 153.0678 206° Southwest 155 178 8,000  Level Aus ATC (RADAR)
05:42PM -28.9051 153.0564 203° Southwest 156 180 8,000  Level Aus ATC (RADAR)
05:43PM -28.9293 153.0475 198° South 157 181 8,000  Level Aus ATC (RADAR)
05:44PM -28.9529 153.0373 201° Southwest 156 180 8,000  Level Aus ATC (RADAR)
05:44PM -28.9766 153.0275 200° South 156 180 8,000  Level Aus ATC (RADAR)
05:46PM -29.0340 153.0024 201° Southwest 156 180 8,000  Level Aus ATC (RADAR)
05:46PM -29.0507 152.9946 202° Southwest 155 178 8,000  Level Aus ATC (RADAR)
05:47PM -29.0746 152.9845 200° South 156 180 8,000  Level Aus ATC (RADAR)
05:47PM -29.1051 152.9713 201° Southwest 156 180 8,000  Level Aus ATC (RADAR)
05:48PM -29.1290 152.9608 201° Southwest 157 181 8,000  Level Aus ATC (RADAR)
05:49PM -29.1564 152.9483 202° Southwest 159 183 8,000  Level Aus ATC (RADAR)
05:49PM -29.1740 152.9416 198° South 160 184 8,000  Level Aus ATC (RADAR)
05:50PM -29.2260 152.9198 200° South 159 183 8,000  Level Aus ATC (RADAR)
05:51PM -29.2428 152.9109 205° Southwest 159 183 8,000  Level Aus ATC (RADAR)
05:51PM -29.2665 152.8999 202° Southwest 158 182 8,000  Level Aus ATC (RADAR)
05:52PM -29.2975 152.8872 200° South 158 182 8,000  Level Aus ATC (RADAR)
05:53PM -29.3181 152.8782 201° Southwest 158 182 8,000  Level Aus ATC (RADAR)
05:53PM -29.3417 152.8672 202° Southwest 156 180 8,000 60 Level Aus ATC (RADAR)
05:54PM -29.3635 152.8542 207° Southwest 153 176 8,100  Climbing Aus ATC (RADAR)
05:54PM -29.3892 152.8474 193° South 160 184 8,000 -60 Descending Aus ATC (RADAR)
05:56PM -29.4558 152.8406 185° South 158 182 8,000  Level Aus ATC (RADAR)
05:56PM -29.4665 152.8386 189° South 159 183 8,000  Level Aus ATC (RADAR)
05:57PM -29.4917 152.8313 194° South 159 183 8,000  Level Aus ATC (RADAR)
05:57PM -29.5221 152.8167 203° Southwest 158 182 8,000  Level Aus ATC (RADAR)
05:58PM -29.5455 152.8049 204° Southwest 158 182 8,000  Level Aus ATC (RADAR)
05:59PM -29.5754 152.7889 205° Southwest 158 182 8,000  Level Aus ATC (RADAR)
05:59PM -29.5918 152.7798 206° Southwest 158 182 8,000  Level Aus ATC (RADAR)
06:01PM -29.6505 152.7455 207° Southwest 159 183 8,000  Level Aus ATC (RADAR)
06:01PM -29.6667 152.7353 209° Southwest 160 184 8,000  Level Aus ATC (RADAR)
06:02PM -29.6865 152.7232 208° Southwest 161 185 8,000  Level Aus ATC (RADAR)
06:02PM -29.7096 152.7090 208° Southwest 161 185 8,000  Level Aus ATC (RADAR)
06:03PM -29.7394 152.6913 207° Southwest 161 185 8,000  Level Aus ATC (RADAR)
06:03PM -29.7629 152.6784 205° Southwest 161 185 8,000  Level Aus ATC (RADAR)
06:04PM -29.7959 152.6682 195° South 163 188 8,000  Level Aus ATC (RADAR)
06:05PM -29.8135 152.6608 200° South 162 186 8,000  Level Aus ATC (RADAR)
06:06PM -29.8658 152.6375 201° Southwest 162 186 8,000  Level Aus ATC (RADAR)
06:06PM -29.8830 152.6297 201° Southwest 160 184 8,000  Level Aus ATC (RADAR)
06:07PM -29.9072 152.6191 201° Southwest 160 184 8,000  Level Aus ATC (RADAR)
06:08PM -29.9382 152.6057 201° Southwest 160 184 8,000  Level Aus ATC (RADAR)
06:08PM -29.9625 152.5949 201° Southwest 160 184 8,000  Level Aus ATC (RADAR)
06:09PM -29.9867 152.5841 201° Southwest 160 184 8,000  Level Aus ATC (RADAR)
06:09PM -30.0106 152.5734 201° Southwest 159 183 8,000  Level Aus ATC (RADAR)
06:11PM -30.0584 152.5520 201° Southwest 158 182 8,000  Level Aus ATC (RADAR)
06:11PM -30.0783 152.5421 203° Southwest 157 181 8,000  Level Aus ATC (RADAR)
06:11PM -30.0882 152.5371 204° Southwest 156 180 8,000  Level Aus ATC (RADAR)
06:12PM -30.1110 152.5255 204° Southwest 154 177 8,000  Level Aus ATC (RADAR)
06:13PM -30.1412 152.5118 201° Southwest 156 180 8,000  Level Aus ATC (RADAR)
06:13PM -30.1647 152.5014 201° Southwest 155 178 8,000  Level Aus ATC (RADAR)
06:14PM -30.1952 152.4887 200° South 156 180 8,000  Level Aus ATC (RADAR)
06:14PM -30.2123 152.4822 198° South 155 178 8,000  Level Aus ATC (RADAR)
06:15PM -30.2534 152.4666 198° South 155 178 8,000  Level Aus ATC (RADAR)
06:16PM -30.2768 152.4564 201° Southwest 153 176 8,000  Level Aus ATC (RADAR)
06:16PM -30.2866 152.4518 202° Southwest 153 176 8,000  Level Aus ATC (RADAR)
06:17PM -30.3097 152.4409 202° Southwest 154 177 8,000  Level Aus ATC (RADAR)
06:18PM -30.3464 152.4242 201° Southwest 154 177 8,000  Level Aus ATC (RADAR)
06:18PM -30.3732 152.4120 201° Southwest 155 178 8,000  Level Aus ATC (RADAR)
06:19PM -30.4029 152.3984 202° Southwest 153 176 8,000  Level Aus ATC (RADAR)
06:20PM -30.4265 152.3885 200° South 155 178 8,000  Level Aus ATC (RADAR)
06:21PM -30.4794 152.3650 201° Southwest 152 175 8,000  Level Aus ATC (RADAR)
06:21PM -30.4960 152.3573 202° Southwest 154 177 8,000  Level Aus ATC (RADAR)
06:22PM -30.5226 152.3461 200° South 153 176 8,000  Level Aus ATC (RADAR)
06:23PM -30.5526 152.3335 200° South 152 175 8,000  Level Aus ATC (RADAR)
06:23PM -30.5760 152.3233 201° Southwest 155 178 8,000  Level Aus ATC (RADAR)
06:24PM -30.6063 152.3106 200° South 154 177 8,000  Level Aus ATC (RADAR)
06:25PM -30.6229 152.3038 199° South 153 176 8,000  Level Aus ATC (RADAR)
06:26PM -30.6512 152.2757 220° Southwest 147 169 8,000  Level Aus ATC (RADAR)
06:26PM -30.6648 152.2639 217° Southwest 146 168 8,000  Level Aus ATC (RADAR)
06:26PM -30.6799 152.2541 209° Southwest 147 169 8,000  Level Aus ATC (RADAR)
06:27PM -30.7058 152.2416 202° Southwest 151 174 8,000  Level Aus ATC (RADAR)
06:28PM -30.7360 152.2287 200° South 153 176 8,000  Level Aus ATC (RADAR)
06:28PM -30.7592 152.2180 202° Southwest 154 177 8,000  Level Aus ATC (RADAR)
06:29PM -30.7879 152.2029 204° Southwest 150 173 8,000  Level Aus ATC (RADAR)
06:29PM -30.8017 152.1954 205° Southwest 137 158 8,000  Level Aus ATC (RADAR)
06:30PM -30.8223 152.1843 205° Southwest 140 161 8,000  Level Aus ATC (RADAR)
06:31PM -30.8739 152.1559 205° Southwest 155 178 8,000  Level Aus ATC (RADAR)
06:32PM -30.8903 152.1474 204° Southwest 155 178 8,000  Level Aus ATC (RADAR)
06:32PM -30.9131 152.1352 205° Southwest 155 178 8,000  Level Aus ATC (RADAR)
06:33PM -30.9455 152.1174 205° Southwest 155 178 8,000  Level Aus ATC (RADAR)
06:34PM -30.9683 152.1061 203° Southwest 153 176 8,000  Level Aus ATC (RADAR)
06:35PM -30.9966 152.0903 206° Southwest 151 174 8,000  Level Aus ATC (RADAR)
06:35PM -31.0128 152.0818 204° Southwest 153 176 8,000  Level Aus ATC (RADAR)
06:36PM -31.0646 152.0536 205° Southwest 156 180 8,000  Level Aus ATC (RADAR)
06:37PM -31.0779 152.0465 205° Southwest 157 181 8,000  Level Aus ATC (RADAR)
06:37PM -31.1012 152.0338 205° Southwest 158 182 8,000  Level Aus ATC (RADAR)
06:38PM -31.1310 152.0176 205° Southwest 158 182 8,000  Level Aus ATC (RADAR)
06:39PM -31.1539 152.0055 204° Southwest 155 178 8,000  Level Aus ATC (RADAR)
06:39PM -31.1765 151.9933 205° Southwest 154 177 8,000  Level Aus ATC (RADAR)
06:40PM -31.1987 151.9804 206° Southwest 153 176 8,000  Level Aus ATC (RADAR)
06:40PM -31.2214 151.9682 205° Southwest 155 178 8,000  Level Aus ATC (RADAR)
06:41PM -31.2614 151.9362 214° Southwest 146 168 8,000  Level Aus ATC (RADAR)
06:42PM -31.2714 151.9196 235° Southwest 147 169 8,000  Level Aus ATC (RADAR)
06:42PM -31.2866 151.8972 232° Southwest 150 173 8,000  Level Aus ATC (RADAR)
06:43PM -31.3066 151.8691 230° Southwest 151 174 8,000  Level Aus ATC (RADAR)
06:44PM -31.3220 151.8477 230° Southwest 149 171 8,000  Level Aus ATC (RADAR)
06:44PM -31.3375 151.8255 231° Southwest 151 174 8,000  Level Aus ATC (RADAR)
06:45PM -31.3554 151.8009 229° Southwest 150 173 8,000  Level Aus ATC (RADAR)
06:46PM -31.3872 151.7567 230° Southwest 152 175 8,000  Level Aus ATC (RADAR)
06:47PM -31.3984 151.7408 231° Southwest 152 175 8,000  Level Aus ATC (RADAR)
06:47PM -31.4122 151.7223 229° Southwest 152 175 8,000  Level Aus ATC (RADAR)
06:48PM -31.4236 151.7060 231° Southwest 154 177 8,000  Level Aus ATC (RADAR)
06:48PM -31.4443 151.6765 231° Southwest 156 180 8,000  Level Aus ATC (RADAR)
06:49PM -31.4597 151.6537 231° Southwest 153 176 8,000  Level Aus ATC (RADAR)
06:50PM -31.4804 151.6274 227° Southwest 151 174 8,000  Level Aus ATC (RADAR)
06:50PM -31.4916 151.6119 230° Southwest 149 171 8,000  Level Aus ATC (RADAR)
06:51PM -31.5148 151.5777 231° Southwest 147 169 8,000  Level Aus ATC (RADAR)
06:51PM -31.5282 151.5593 230° Southwest 149 171 8,000  Level Aus ATC (RADAR)
06:52PM -31.5395 151.5436 230° Southwest 151 174 8,000  Level Aus ATC (RADAR)
06:52PM -31.5546 151.5212 232° Southwest 150 173 8,000  Level Aus ATC (RADAR)
06:53PM -31.5749 151.4931 230° Southwest 152 175 8,000  Level Aus ATC (RADAR)
06:54PM -31.5901 151.4714 231° Southwest 148 170 8,000  Level Aus ATC (RADAR)
06:55PM -31.6097 151.4442 230° Southwest 146 168 8,000  Level Aus ATC (RADAR)
06:55PM -31.6205 151.4286 231° Southwest 147 169 8,000  Level Aus ATC (RADAR)
06:56PM -31.6358 151.4064 231° Southwest 152 175 8,000  Level Aus ATC (RADAR)
06:56PM -31.6601 151.3720 230° Southwest 151 174 8,000  Level Aus ATC (RADAR)
06:57PM -31.6710 151.3571 229° Southwest 147 169 8,000 -120 Level Aus ATC (RADAR)
06:58PM -31.6887 151.3316 231° Southwest 151 174 7,900 -120 Descending Aus ATC (RADAR)
06:58PM -31.7086 151.3033 231° Southwest 151 174 7,900  Level Aus ATC (RADAR)
06:59PM -31.7242 151.2811 230° Southwest 152 175 7,900  Level Aus ATC (RADAR)
07:00PM -31.7461 151.2502 230° Southwest 148 170 7,900  Level Aus ATC (RADAR)
07:00PM -31.7547 151.2376 231° Southwest 149 171 7,900  Level Aus ATC (RADAR)
07:01PM -31.7700 151.2161 230° Southwest 148 170 7,900  Level Aus ATC (RADAR)
07:02PM -31.7991 151.1744 231° Southwest 155 178 7,900  Level Aus ATC (RADAR)
07:02PM -31.8104 151.1588 229° Southwest 151 174 7,900  Level Aus ATC (RADAR)
07:03PM -31.8259 151.1365 231° Southwest 151 174 7,900  Level Aus ATC (RADAR)
07:03PM -31.8457 151.1078 231° Southwest 151 174 7,900  Level Aus ATC (RADAR)
07:04PM -31.8610 151.0863 230° Southwest 148 170 7,900 60 Level Aus ATC (RADAR)
07:05PM -31.8830 151.0549 231° Southwest 149 171 8,000 60 Climbing Aus ATC (RADAR)
07:05PM -31.8942 151.0386 231° Southwest 153 176 8,000 -120 Level Aus ATC (RADAR)
07:06PM -31.9250 150.9946 230° Southwest 150 173 7,900  Descending Aus ATC (RADAR)
07:07PM -31.9382 150.9762 230° Southwest 148 170 8,000 60 Climbing Aus ATC (RADAR)
07:07PM -31.9492 150.9603 231° Southwest 150 173 8,000  Level Aus ATC (RADAR)
07:08PM -31.9649 150.9377 231° Southwest 153 176 8,000 -120 Level Aus ATC (RADAR)
07:09PM -31.9851 150.9088 230° Southwest 154 177 7,900  Descending Aus ATC (RADAR)
07:09PM -32.0007 150.8862 231° Southwest 155 178 8,000  Climbing Aus ATC (RADAR)
07:10PM -32.0210 150.8567 231° Southwest 157 181 7,900 -120 Descending Aus ATC (RADAR)
07:10PM -32.0325 150.8409 230° Southwest 155 178 7,900 60 Level Aus ATC (RADAR)
07:11PM -32.0748 150.8310 191° South 163 188 8,000 60 Climbing Aus ATC (RADAR)
07:12PM -32.0934 150.8298 183° South 161 185 8,000  Level Aus ATC (RADAR)
07:12PM -32.1125 150.8298 180° South 162 186 8,000  Level Aus ATC (RADAR)
07:13PM -32.1386 150.8280 183° South 160 184 8,000  Level Aus ATC (RADAR)
07:14PM -32.1724 150.8272 181° South 158 182 8,000  Level Aus ATC (RADAR)
07:14PM -32.1987 150.8263 182° South 160 184 8,000  Level Aus ATC (RADAR)
07:15PM -32.2360 150.8249 182° South 159 183 8,000  Level Aus ATC (RADAR)
07:15PM -32.2547 150.8240 182° South 160 184 8,000  Level Aus ATC (RADAR)
07:16PM -32.2954 150.8225 182° South 158 182 8,000  Level Aus ATC (RADAR)
07:17PM -32.3139 150.8219 182° South 159 183 8,000  Level Aus ATC (RADAR)
07:17PM -32.3324 150.8213 181° South 158 182 8,000  Level Aus ATC (RADAR)
07:18PM -32.3585 150.8206 181° South 158 182 8,000  Level Aus ATC (RADAR)
07:19PM -32.3944 150.8178 184° South 159 183 8,000 -120 Level Aus ATC (RADAR)
07:19PM -32.4209 150.8187 178° South 162 186 7,900 -120 Descending Aus ATC (RADAR)
07:20PM -32.4580 150.8164 183° South 161 185 7,900  Level Aus ATC (RADAR)
07:20PM -32.4726 150.8169 178° South 158 182 7,900  Level Aus ATC (RADAR)
07:21PM -32.4983 150.8150 183° South 157 181 7,900  Level Aus ATC (RADAR)
07:22PM -32.5511 150.8141 181° South 159 183 7,900  Level Aus ATC (RADAR)
07:22PM -32.5691 150.8130 183° South 161 185 7,900  Level Aus ATC (RADAR)
07:23PM -32.5956 150.8122 181° South 162 186 7,900  Level Aus ATC (RADAR)
07:24PM -32.6298 150.8114 181° South 164 189 7,900  Level Aus ATC (RADAR)
07:24PM -32.6564 150.8103 182° South 165 190 7,900  Level Aus ATC (RADAR)
07:25PM -32.6905 150.8091 182° South 163 188 7,900  Level Aus ATC (RADAR)
07:26PM -32.7134 150.8082 182° South 164 189 7,900  Level Aus ATC (RADAR)
07:27PM -32.7552 150.8065 182° South 163 188 7,900  Level Aus ATC (RADAR)
07:27PM -32.7741 150.8060 181° South 164 189 7,900  Level Aus ATC (RADAR)
07:27PM -32.7967 150.8055 181° South 163 188 7,900  Level Aus ATC (RADAR)
07:28PM -32.8228 150.8043 182° South 160 184 7,900  Level Aus ATC (RADAR)
07:29PM -32.8566 150.8026 182° South 161 185 7,900  Level Aus ATC (RADAR)
07:29PM -32.8830 150.8020 181° South 161 185 7,900  Level Aus ATC (RADAR)
07:30PM -32.9168 150.8006 182° South 162 186 7,900  Level Aus ATC (RADAR)
07:31PM -32.9358 150.7998 182° South 164 189 7,900  Level Aus ATC (RADAR)
07:32PM -32.9888 150.7979 182° South 163 188 7,900  Level Aus ATC (RADAR)
07:32PM -33.0081 150.7969 183° South 166 191 7,900  Level Aus ATC (RADAR)
07:33PM -33.0276 150.7962 182° South 168 193 7,900  Level Aus ATC (RADAR)
07:33PM -33.0589 150.7952 181° South 169 194 7,900  Level Aus ATC (RADAR)
07:34PM -33.0939 150.7938 182° South 167 192 7,900  Level Aus ATC (RADAR)
07:35PM -33.1216 150.7927 182° South 171 197 7,900  Level Aus ATC (RADAR)
07:36PM -33.1680 150.7906 182° South 167 192 7,900  Level Aus ATC (RADAR)
07:36PM -33.1796 150.7904 181° South 167 192 7,900  Level Aus ATC (RADAR)
07:37PM -33.2429 150.7885 181° South 170 196 7,900  Level Aus ATC (RADAR)
07:38PM -33.2624 150.7877 182° South 170 196 7,900  Level Aus ATC (RADAR)
07:38PM -33.2897 150.7865 182° South 168 193 7,900  Level Aus ATC (RADAR)
07:39PM -33.3248 150.7855 181° South 169 194 7,900  Level Aus ATC (RADAR)
07:40PM -33.3566 150.7849 181° South 172 198 7,900  Level Aus ATC (RADAR)
07:40PM -33.3966 150.7842 181° South 173 199 7,900  Level Aus ATC (RADAR)
07:41PM -33.4164 150.7838 181° South 174 200 7,900 -120 Level Aus ATC (RADAR)
07:42PM -33.4617 150.7829 181° South 180 207 7,800 -300 Descending Aus ATC (RADAR)
07:42PM -33.4833 150.7824 181° South 186 214 7,500 -600 Descending Aus ATC (RADAR)
07:43PM -33.5051 150.7818 181° South 188 216 7,300 -480 Descending Aus ATC (RADAR)
07:43PM -33.5398 150.7817 180° South 181 208 7,000 -540 Descending Aus ATC (RADAR)
07:44PM -33.5783 150.7808 181° South 187 215 6,600 -540 Descending Aus ATC (RADAR)
07:45PM -33.6081 150.7795 182° South 183 211 6,300 -540 Descending Aus ATC (RADAR)
07:45PM -33.6449 150.7575 206° Southwest 175 201 5,900 -360 Descending Aus ATC (RADAR)
07:46PM -33.6620 150.7442 213° Southwest 173 199 5,900  Level Aus ATC (RADAR)
07:47PM -33.6999 150.7147 213° Southwest 159 183 5,900  Level Aus ATC (RADAR)
07:47PM -33.7189 150.7001 213° Southwest 165 190 5,900  Level Aus ATC (RADAR)
07:48PM -33.7353 150.6872 213° Southwest 166 191 5,900  Level Aus ATC (RADAR)
07:48PM -33.7585 150.6689 213° Southwest 169 194 5,900  Level Aus ATC (RADAR)
07:49PM -33.7885 150.6458 213° Southwest 169 194 5,900  Level Aus ATC (RADAR)
07:50PM -33.8118 150.6273 213° Southwest 170 196 5,900 -360 Level Aus ATC (RADAR)
07:50PM -33.8466 150.6003 213° Southwest 178 205 5,400 -600 Descending Aus ATC (RADAR)
07:51PM -33.8569 150.5923 213° Southwest 177 204 5,300 -120 Descending Aus ATC (RADAR)
07:51PM -33.8789 150.5750 213° Southwest 162 186 5,300  Level Aus ATC (RADAR)
07:52PM -33.9203 150.5425 213° Southwest 151 174 5,300  Level Aus ATC (RADAR)
07:53PM -33.9352 150.5309 213° Southwest 151 174 5,300  Level Aus ATC (RADAR)
07:53PM -33.9553 150.5150 213° Southwest 148 170 5,300  Level Aus ATC (RADAR)
07:54PM -33.9846 150.4920 213° Southwest 151 174 5,300  Level Aus ATC (RADAR)
07:55PM -34.0047 150.4762 213° Southwest 147 169 5,300  Level Aus ATC (RADAR)
07:56PM -34.0298 150.4567 213° Southwest 141 162 5,300  Level Aus ATC (RADAR)
07:56PM -34.0426 150.4467 213° Southwest 133 153 5,300  Level Aus ATC (RADAR)
07:57PM -34.0725 150.4260 210° Southwest 125 144 5,300 -240 Level Aus ATC (RADAR)
07:58PM -34.0869 150.4395 142° Southeast 135 155 5,000 -660 Descending Aus ATC (RADAR)
07:58PM -34.0969 150.4547 129° Southeast 137 158 4,700 -660 Descending Aus ATC (RADAR)
07:58PM -34.1083 150.4711 130° Southeast 126 145 4,400 -600 Descending Aus ATC (RADAR)
07:59PM -34.1255 150.4978 128° Southeast 114 131 3,900 -600 Descending Aus ATC (RADAR)
08:00PM -34.1181 150.5170 65° Northeast 104 120 3,600 -660 Descending Aus ATC (RADAR)
08:01PM -34.1062 150.5430 61° Northeast 99 114 3,000 -720 Descending Aus ATC (RADAR)
08:01PM -34.1001 150.5555 59° Northeast 100 115 2,800 -660 Descending Aus ATC (RADAR)
08:02PM -34.0877 150.5820 61° Northeast 107 123 2,200 -720 Descending Aus ATC (RADAR)
08:02PM -34.0794 150.5972 57° Northeast 108 124 1,900 -480 Descending Aus ATC (RADAR)
08:03PM -34.0729 150.6082 54° Northeast 100 115 1,800 -540 Descending Aus ATC (RADAR)
08:03PM -34.0639 150.6247 57° Northeast 101 116 1,400 -660 Descending Aus ATC (RADAR)
08:04PM -34.0539 150.6465 61° Northeast 100 115 1,000 -600 Descending Aus ATC (RADAR)
08:05PM -34.0473 150.6641 66° East 84 97 600 -600 Descending Aus ATC (RADAR)
08:06PM -34.0397 150.6829 64° Northeast 82 94 200 -600 Descending Aus ATC (RADAR)
08:06PM -34.0388 150.6848 60° Northeast 82 94 100 -1,200 Descending Aus ATC (RADAR)